• Join FlightAware (Why Join?)
  • Login
  • US Flag 
04:35AM EDT


 

Airport Tracker/Info


-or-


 

Live Flight TrackerFlight Track Log ✈ DRL45 ✈ 15-Jul-2014 ✈ KTUL - KSAN

Flight Track Log - Related Links

Times and Time Zones

All times are in EDT time to prevent confusion due to time zone crossing. See the DRL45 flight status page for this flight to view local times or setup timezone preferences in your user account.

Time Position Orientation Groundspeed Altitude Reporting Facility
EDT Latitude Longitude Course Direction KTS MPH feet Rate Location/Type
12:46PM 36.2136 -95.8817 356° North 162 186 1,500  Level Kansas City Center
12:46PM 36.2389 -95.8836 356° North 184 212 2,900 2,760 Climbing Kansas City Center
12:47PM 36.2533 -95.9542 284° West 252 290 5,700 2,400 Climbing Kansas City Center
12:48PM 36.2547 -95.9725 275° West 234 269 6,200 2,760 Climbing Kansas City Center
12:49PM 36.2517 -96.0672 268° West 265 305 9,500 3,840 Climbing Kansas City Center
12:50PM 36.2472 -96.1875 267° West 286 329 14,200 3,180 Climbing Kansas City Center
12:51PM 36.2314 -96.3008 260° West 335 386 16,200 2,820 Climbing Kansas City Center
12:52PM 36.2000 -96.4175 252° West 353 406 20,000 3,240 Climbing Kansas City Center
12:53PM 36.1903 -96.5369 264° West 352 405 22,900 2,520 Climbing Kansas City Center
12:54PM 36.1803 -96.6625 264° West 358 412 25,300 2,820 Climbing Kansas City Center
12:55PM 36.1661 -96.8083 263° West 370 426 28,800 2,760 Climbing Kansas City Center
12:56PM 36.1536 -96.9264 263° West 356 410 31,100 1,740 Climbing Kansas City Center
12:57PM 36.1425 -97.0469 264° West 353 406 32,500 1,200 Climbing Kansas City Center
12:58PM 36.1292 -97.1728 263° West 364 419 33,600 1,140 Climbing Kansas City Center
12:59PM 36.1158 -97.3028 263° West 378 435 34,900 1,440 Climbing Kansas City Center
01:00PM 36.0994 -97.4594 263° West 384 442 36,600 1,440 Climbing Kansas City Center
01:01PM 36.0847 -97.5903 262° West 384 442 37,900 1,020 Climbing Kansas City Center
01:02PM 36.0711 -97.7203 263° West 384 442 38,800 900 Climbing Kansas City Center
01:03PM 36.0578 -97.8500 263° West 384 442 39,800 960 Climbing Kansas City Center
01:04PM 36.0436 -97.9783 262° West 384 442 40,800 960 Climbing Kansas City Center
01:05PM 36.0278 -98.1106 262° West 378 435 41,900 960 Climbing Kansas City Center
01:06PM 36.0108 -98.2606 262° West 371 427 42,800 480 Climbing Kansas City Center
01:07PM 35.9969 -98.3847 262° West 367 422 43,000 60 Climbing Kansas City Center
01:08PM 35.9825 -98.5142 262° West 374 430 43,000  Level Kansas City Center
01:09PM 35.9672 -98.6472 262° West 385 443 43,000  Level Kansas City Center
01:10PM 35.9503 -98.7958 262° West 388 447 43,000  Level Kansas City Center
01:11PM 35.9347 -98.9267 262° West 388 447 43,000  Level Kansas City Center
01:12PM 35.9181 -99.0594 261° West 388 447 43,000  Level Kansas City Center
01:14PM 35.9036 -99.1925 262° West 390 449 43,000  Level Kansas City Center
01:15PM 35.8850 -99.3256 260° West 390 449 43,000  Level Kansas City Center
01:16PM 35.8661 -99.4842 262° West 391 450 43,000 60 Level Kansas City Center
01:17PM 35.8500 -99.6156 261° West 391 450 43,200 300 Climbing Kansas City Center
01:18PM 35.8336 -99.7475 261° West 390 449 43,700 420 Climbing Kansas City Center
01:19PM 35.8175 -99.8797 261° West 390 449 44,100 420 Climbing Kansas City Center
01:20PM 35.8014 -100.0128 262° West 390 449 44,600 360 Climbing Kansas City Center
01:21PM 35.7811 -100.1692 261° West 390 449 45,000 180 Climbing Albuquerque Center
01:22PM 35.7639 -100.3017 261° West 390 449 45,000  Level Albuquerque Center
01:23PM 35.7467 -100.4356 261° West 391 450 45,000  Level Albuquerque Center
01:24PM 35.7283 -100.5722 261° West 398 458 45,000  Level Albuquerque Center
01:25PM 35.7061 -100.7333 260° West 402 463 45,000  Level Albuquerque Center
01:26PM 35.6886 -100.8700 261° West 403 464 45,000  Level Albuquerque Center
01:27PM 35.6697 -101.0067 260° West 405 466 45,000  Level Albuquerque Center
01:28PM 35.6517 -101.1428 261° West 405 466 45,000  Level Albuquerque Center
01:30PM 35.6108 -101.4389 260° West 404 465 45,000  Level Albuquerque Center
01:31PM 35.5925 -101.5719 260° West 403 464 45,000  Level Albuquerque Center
01:32PM 35.5731 -101.7058 260° West 402 463 45,000  Level Albuquerque Center
01:33PM 35.5544 -101.8389 260° West 402 463 45,000  Level Albuquerque Center
01:34PM 35.5350 -101.9706 260° West 400 460 45,000  Level Albuquerque Center
01:35PM 35.5111 -102.1297 260° West 400 460 45,000  Level Albuquerque Center
01:36PM 35.4914 -102.2614 260° West 399 459 45,000  Level Albuquerque Center
01:37PM 35.4722 -102.3931 260° West 398 458 45,000  Level Albuquerque Center
01:38PM 35.4528 -102.5250 260° West 398 458 45,000  Level Albuquerque Center
01:39PM 35.4294 -102.6764 259° West 398 458 45,000  Level Albuquerque Center
01:40PM 35.4092 -102.8119 260° West 399 459 45,000  Level Albuquerque Center
01:42PM 35.3883 -102.9486 259° West 401 461 45,000  Level Albuquerque Center
01:43PM 35.3678 -103.0844 260° West 401 461 45,000  Level Albuquerque Center
01:44PM 35.3464 -103.2228 259° West 403 464 45,000  Level Albuquerque Center
01:45PM 35.3247 -103.3600 259° West 406 467 45,000  Level Albuquerque Center
01:46PM 35.3036 -103.4972 259° West 406 467 45,000  Level Albuquerque Center
01:47PM 35.2817 -103.6331 259° West 406 467 45,000  Level Albuquerque Center
01:48PM 35.2561 -103.7919 259° West 406 467 45,000  Level Albuquerque Center
01:49PM 35.2339 -103.9281 259° West 406 467 45,000  Level Albuquerque Center
01:50PM 35.2144 -104.0481 259° West 412 474 45,000  Level Albuquerque Center
01:51PM 35.1936 -104.1836 259° West 411 473 45,000  Level Albuquerque Center
01:52PM 35.1661 -104.3472 258° West 410 472 45,000  Level Albuquerque Center
01:53PM 35.1436 -104.4836 259° West 410 472 45,000  Level Albuquerque Center
01:54PM 35.1172 -104.6275 257° West 411 473 45,000  Level Albuquerque Center
01:55PM 35.0944 -104.7653 259° West 411 473 45,000  Level Albuquerque Center
01:56PM 35.0711 -104.9025 258° West 411 473 45,000  Level Albuquerque Center
01:57PM 35.0472 -105.0417 258° West 411 473 45,000  Level Albuquerque Center
01:58PM 35.0228 -105.1814 258° West 413 475 45,000  Level Albuquerque Center
01:59PM 34.9986 -105.3208 258° West 413 475 45,000  Level Albuquerque Center
02:00PM 34.9739 -105.4606 258° West 415 478 45,000  Level Albuquerque Center
02:01PM 34.9464 -105.6169 258° West 417 480 45,000  Level Albuquerque Center
02:02PM 34.9211 -105.7575 258° West 419 482 45,000  Level Albuquerque Center
02:03PM 34.8961 -105.8978 258° West 422 486 45,000  Level Albuquerque Center
02:04PM 34.8697 -106.0417 257° West 427 491 45,000  Level Albuquerque Center
02:05PM 34.8444 -106.1822 258° West 427 491 45,000  Level Albuquerque Center
02:06PM 34.8183 -106.3233 257° West 427 491 45,000  Level Albuquerque Center
02:07PM 34.7925 -106.4642 257° West 427 491 45,000  Level Albuquerque Center
02:08PM 34.7619 -106.6375 258° West 432 497 45,000  Level Albuquerque Center
02:09PM 34.7322 -106.7811 256° West 434 499 45,000  Level Albuquerque Center
02:10PM 34.6914 -106.9258 251° West 435 501 45,000  Level Albuquerque Center
02:11PM 34.6536 -107.0664 252° West 435 501 45,000  Level Albuquerque Center
02:12PM 34.6131 -107.2164 252° West 436 502 45,000  Level Albuquerque Center
02:13PM 34.5756 -107.3492 251° West 436 502 45,000  Level Albuquerque Center
02:14PM 34.5367 -107.4872 251° West 440 506 45,000  Level Albuquerque Center
02:16PM 34.4983 -107.6258 251° West 439 505 45,000  Level Albuquerque Center
02:17PM 34.4594 -107.7639 251° West 437 503 45,000  Level Albuquerque Center
02:18PM 34.4131 -107.9297 251° West 434 499 45,000  Level Albuquerque Center
02:19PM 34.3731 -108.0669 251° West 434 499 45,000  Level Albuquerque Center
02:20PM 34.3347 -108.2064 252° West 435 501 45,000  Level Albuquerque Center
02:21PM 34.2942 -108.3444 250° West 435 501 45,000  Level Albuquerque Center
02:22PM 34.2522 -108.4933 251° West 435 501 45,000  Level Albuquerque Center
02:23PM 34.2125 -108.6286 250° West 435 501 45,000  Level Albuquerque Center
02:24PM 34.1728 -108.7667 251° West 434 499 45,000  Level Albuquerque Center
02:25PM 34.1283 -108.9200 251° West 435 501 45,000  Level Albuquerque Center
02:26PM 34.0900 -109.0525 251° West 435 501 45,000  Level Albuquerque Center
02:27PM 34.0442 -109.2064 250° West 435 501 45,000  Level Albuquerque Center
02:28PM 34.0039 -109.3422 250° West 435 501 45,000  Level Albuquerque Center
02:29PM 33.9636 -109.4783 250° West 435 501 45,000  Level Albuquerque Center
02:30PM 33.9219 -109.6178 250° West 438 504 45,000  Level Albuquerque Center
02:31PM 33.8800 -109.7561 250° West 439 505 45,000  Level Albuquerque Center
02:32PM 33.8306 -109.9206 250° West 439 505 45,000  Level Albuquerque Center
02:33PM 33.7889 -110.0581 250° West 439 505 45,000  Level Albuquerque Center
02:34PM 33.7464 -110.1942 249° West 439 505 45,000  Level Albuquerque Center
02:35PM 33.7039 -110.3303 249° West 439 505 45,000  Level Albuquerque Center
02:36PM 33.6625 -110.4689 250° West 438 504 45,000  Level Albuquerque Center
02:37PM 33.6206 -110.6064 250° West 438 504 45,000  Level Albuquerque Center
02:38PM 33.5783 -110.7417 249° West 437 503 45,000  Level Albuquerque Center
02:39PM 33.5278 -110.9047 250° West 437 503 45,000  Level Albuquerque Center
02:40PM 33.4858 -111.0400 250° West 435 501 45,000  Level Albuquerque Center
02:41PM 33.4422 -111.1750 249° West 434 499 45,000  Level Albuquerque Center
02:42PM 33.3989 -111.3103 249° West 434 499 45,000  Level Albuquerque Center
02:43PM 33.3558 -111.4436 249° West 433 498 45,000  Level Albuquerque Center
02:44PM 33.3133 -111.5783 249° West 433 498 45,000  Level Albuquerque Center
02:45PM 33.2694 -111.7144 249° West 434 499 45,000  Level Albuquerque Center
02:46PM 33.2264 -111.8481 249° West 434 499 45,000  Level Albuquerque Center
02:47PM 33.1833 -111.9819 249° West 433 498 45,000  Level Albuquerque Center
02:48PM 33.1300 -112.1417 248° West 433 498 45,000  Level Albuquerque Center
02:50PM 33.0892 -112.2675 249° West 432 497 45,000  Level Albuquerque Center
02:51PM 33.0464 -112.4000 249° West 432 497 45,000  Level Albuquerque Center
02:52PM 33.0025 -112.5328 249° West 431 496 45,000  Level Albuquerque Center
02:53PM 32.9600 -112.6636 249° West 431 496 45,000 -300 Level Albuquerque Center
02:54PM 32.9361 -112.8317 260° West 430 495 44,500 -780 Descending Albuquerque Center
02:55PM 32.9161 -112.9769 261° West 443 510 43,500 -1,020 Descending Albuquerque Center
02:56PM 32.8964 -113.1261 261° West 453 521 42,500 -1,080 Descending Albuquerque Center
02:57PM 32.8753 -113.2719 260° West 454 522 41,400 -1,020 Descending Albuquerque Center
02:58PM 32.8567 -113.4128 261° West 442 509 40,400 -2,040 Descending Albuquerque Center
02:59PM 32.8325 -113.5861 261° West 443 510 37,200 -2,820 Descending Albuquerque Center
03:00PM 32.8122 -113.7022 258° West 454 522 35,200 -1,740 Descending Los Angeles Center
03:01PM 32.7922 -113.8450 261° West 446 513 34,000 -600 Descending Los Angeles Center
03:02PM 32.7725 -113.9908 261° West 444 511 34,000  Level Los Angeles Center
03:03PM 32.7711 -114.1431 269° West 455 524 34,000  Level Los Angeles Center
03:04PM 32.7703 -114.3264 270° West 461 531 34,000  Level Los Angeles Center
03:05PM 32.7964 -114.4794 282° West 469 540 34,000  Level Los Angeles Center
03:06PM 32.8197 -114.6328 280° West 472 543 34,000  Level Los Angeles Center
03:07PM 32.8456 -114.7867 281° West 472 543 34,000  Level Los Angeles Center
03:08PM 32.8703 -114.9406 281° West 473 544 34,000 -540 Level Los Angeles Center
03:09PM 32.8889 -115.0939 278° West 473 544 33,000 -1,140 Descending Los Angeles Center
03:10PM 32.8894 -115.2772 270° West 465 535 31,700 -1,140 Descending Los Angeles Center
03:11PM 32.8822 -115.4250 267° West 452 520 30,700 -1,020 Descending Los Angeles Center
03:12PM 32.8608 -115.5692 260° West 449 517 29,600 -1,800 Descending Los Angeles Center
03:13PM 32.8419 -115.7100 261° West 436 502 27,100 -2,760 Descending Los Angeles Center
03:14PM 32.8244 -115.8483 261° West 428 493 23,900 -3,060 Descending Los Angeles Center
03:15PM 32.8069 -115.9811 261° West 411 473 20,800 -3,240 Descending Los Angeles Center
03:16PM 32.7872 -116.1336 261° West 390 449 17,300 -2,760 Descending Los Angeles Center
03:17PM 32.7717 -116.2492 261° West 356 410 15,200 -2,040 Descending Los Angeles Center
03:18PM 32.7567 -116.3533 260° West 318 366 13,200 -2,280 Descending Los Angeles Center
03:19PM 32.7411 -116.4578 260° West 315 362 10,600 -2,040 Descending Los Angeles Center
03:20PM 32.7269 -116.5544 260° West 299 344 9,000 -1,740 Descending Los Angeles Center
03:21PM 32.7142 -116.6458 261° West 285 328 7,100 -1,500 Descending Los Angeles Center
03:22PM 32.7003 -116.7389 260° West 282 325 5,900 -1,080 Descending Los Angeles Center
03:23PM 32.6878 -116.8236 260° West 271 312 4,900 -1,080 Descending Los Angeles Center
03:24PM 32.6833 -116.8833 265° West 240 276 4,200 -720 Descending Southern California TRACON
03:25PM 32.6667 -116.9500 253° West 214 246 3,800 -720 Descending Southern California TRACON
03:26PM 32.6833 -117.0167 287° West 194 223 2,800 -840 Descending Southern California TRACON
03:27PM 32.7000 -117.0667 292° West 144 166 2,200 -600 Descending Southern California TRACON
03:28PM 32.7167 -117.1000 301° West 135 155 1,700 -840 Descending Southern California TRACON
03:29PM 32.7181 -117.1253 274° West 134 154 900 -840 Descending Los Angeles Center
03:30PM 32.7275 -117.1653 286° West 131 151 300 -600 Descending Los Angeles Center
03:32PM 32.7333 -117.1833 281° West  Level FlightAware Approximate